Time;durP1;ratioP1;P1;durP2;ratioP2;P2;SDS_P1;SDS_P2;PMS_P1;PMS_P2;Temp;Humidity;BMP_temperature;BMP_pressure;BME280_temperature;BME280_humidity;BME280_pressure;Samples;Min_cycle;Max_cycle;Signal;HPM_P1;HPM_P2
2022/06/17 00:00:58;;;;;;;3.67;3.47;;;19.60;99.90;;;;;;4993435;28;20213;-91
2022/06/17 00:03:26;;;;;;;3.50;3.30;;;19.50;99.90;;;;;;4995241;28;20714;-95
2022/06/17 00:05:55;;;;;;;3.60;3.40;;;19.50;99.90;;;;;;4993750;28;20178;-91
2022/06/17 00:08:25;;;;;;;3.87;3.57;;;19.50;99.90;;;;;;4994530;28;20182;-89
2022/06/17 00:10:54;;;;;;;3.77;3.47;;;19.50;99.90;;;;;;4995728;28;20625;-94
2022/06/17 00:13:21;;;;;;;4.03;3.57;;;19.50;99.90;;;;;;4995732;28;20216;-94
2022/06/17 00:15:47;;;;;;;3.60;3.27;;;19.50;99.90;;;;;;5011523;28;20165;-92
2022/06/17 00:18:15;;;;;;;3.50;3.30;;;19.50;99.90;;;;;;5016768;28;20170;-92
2022/06/17 00:20:43;;;;;;;3.60;3.30;;;19.50;99.90;;;;;;5011006;28;20264;-93
2022/06/17 00:23:16;;;;;;;3.47;3.23;;;19.50;99.90;;;;;;4996037;28;20208;-92
2022/06/17 00:25:45;;;;;;;3.40;3.20;;;19.50;99.90;;;;;;4994918;28;20189;-93
2022/06/17 00:28:20;;;;;;;4.10;3.80;;;19.50;99.90;;;;;;4995535;28;20170;-93
2022/06/17 00:30:47;;;;;;;4.07;3.77;;;19.50;99.90;;;;;;4999179;28;20221;-92
2022/06/17 00:33:14;;;;;;;3.60;3.40;;;19.40;99.90;;;;;;5017336;28;20165;-87
2022/06/17 00:35:44;;;;;;;3.90;3.70;;;19.20;99.90;;;;;;5013372;28;20178;-88
2022/06/17 00:38:13;;;;;;;4.30;3.90;;;19.20;99.90;;;;;;5014283;28;20166;-92
2022/06/17 00:40:39;;;;;;;4.13;3.83;;;19.10;99.90;;;;;;5007568;28;20206;-91
2022/06/17 00:43:12;;;;;;;4.20;3.83;;;19.10;99.90;;;;;;4996587;28;20197;-93
2022/06/17 00:45:47;;;;;;;4.00;3.63;;;19.00;99.90;;;;;;4994336;28;20161;-94
2022/06/17 00:48:13;;;;;;;4.33;3.97;;;19.10;99.90;;;;;;4993325;28;20174;-93
2022/06/17 00:50:52;;;;;;;4.73;4.33;;;19.10;99.90;;;;;;5003782;28;20170;-89
2022/06/17 00:53:25;;;;;;;4.70;4.33;;;19.10;99.90;;;;;;5012278;28;20197;-95
2022/06/17 00:56:04;;;;;;;5.03;4.50;;;19.20;99.90;;;;;;5004284;28;20253;-91
2022/06/17 00:58:53;;;;;;;4.37;3.97;;;19.10;99.90;;;;;;5008661;28;20162;-88
2022/06/17 01:01:22;;;;;;;4.27;3.97;;;19.00;99.90;;;;;;5000074;28;20344;-91
2022/06/17 01:03:54;;;;;;;4.93;4.20;;;19.10;99.90;;;;;;4997925;28;20162;-91
2022/06/17 01:06:24;;;;;;;3.97;3.77;;;19.00;99.90;;;;;;4997877;28;20519;-94
2022/06/17 01:11:42;;;;;;;4.30;4.00;;;19.10;99.90;;;;;;4997837;28;20189;-93
2022/06/17 01:14:11;;;;;;;4.50;4.20;;;19.00;99.90;;;;;;4997902;28;20177;-94
2022/06/17 01:16:39;;;;;;;4.13;3.83;;;18.90;99.90;;;;;;4997436;28;20174;-91
2022/06/17 01:19:55;;;;;;;4.57;4.17;;;18.90;99.90;;;;;;4997687;28;20546;-89
2022/06/17 01:22:27;;;;;;;4.50;4.20;;;18.80;99.90;;;;;;4962528;29;20714;-92
2022/06/17 01:25:00;;;;;;;5.03;4.47;;;18.80;99.90;;;;;;4958889;29;20622;-93
2022/06/17 01:27:35;;;;;;;4.60;4.23;;;18.80;99.90;;;;;;4957457;28;20199;-94
2022/06/17 01:30:03;;;;;;;4.30;4.03;;;18.80;99.90;;;;;;4957360;29;20345;-95
2022/06/17 01:32:34;;;;;;;4.23;4.03;;;18.80;99.90;;;;;;4942208;29;20187;-94
2022/06/17 01:35:00;;;;;;;4.30;4.10;;;18.70;99.90;;;;;;4969426;29;20684;-93
2022/06/17 01:37:47;;;;;;;4.10;3.90;;;18.70;99.90;;;;;;4973396;29;20194;-93
2022/06/17 01:40:14;;;;;;;4.40;4.10;;;18.80;99.90;;;;;;4979298;29;20300;-92
2022/06/17 01:42:39;;;;;;;6.97;4.33;;;18.80;99.90;;;;;;4952867;29;20172;-94
2022/06/17 01:45:09;;;;;;;4.57;4.27;;;18.80;99.90;;;;;;4959692;29;20266;-94
2022/06/17 01:47:36;;;;;;;4.40;4.07;;;18.70;99.90;;;;;;4967398;29;20560;-91
2022/06/17 01:50:08;;;;;;;4.50;4.27;;;18.70;99.90;;;;;;4956711;29;20171;-94
2022/06/17 01:52:56;;;;;;;4.83;4.50;;;18.70;99.90;;;;;;4956693;29;20188;-94
2022/06/17 01:55:37;;;;;;;4.80;4.30;;;18.70;99.90;;;;;;4956532;29;20159;-94
2022/06/17 01:58:16;;;;;;;4.40;4.10;;;18.70;99.90;;;;;;4979415;28;20189;-91
2022/06/17 02:00:42;;;;;;;4.10;3.90;;;18.70;99.90;;;;;;4996090;28;20299;-93
2022/06/17 02:03:17;;;;;;;4.80;4.50;;;18.70;99.90;;;;;;4996861;28;20645;-93
2022/06/17 02:05:49;;;;;;;4.83;4.43;;;18.70;99.90;;;;;;4997192;28;20166;-95
2022/06/17 02:08:15;;;;;;;4.90;4.50;;;18.70;99.90;;;;;;4996950;28;20245;-93
2022/06/17 02:10:44;;;;;;;4.73;4.43;;;18.70;99.90;;;;;;4996157;28;20201;-93
2022/06/17 02:13:11;;;;;;;4.80;4.40;;;18.70;99.90;;;;;;4998243;28;20181;-94
2022/06/17 02:15:39;;;;;;;4.87;4.37;;;18.50;99.90;;;;;;5019494;28;20248;-89
2022/06/17 02:18:13;;;;;;;4.63;4.33;;;18.50;99.90;;;;;;5020691;28;20162;-87
2022/06/17 02:20:41;;;;;;;6.27;4.27;;;18.60;99.90;;;;;;5005856;28;20201;-95
2022/06/17 02:23:07;;;;;;;5.50;4.73;;;18.60;99.90;;;;;;4997013;28;20285;-92
2022/06/17 02:25:50;;;;;;;5.30;4.83;;;18.60;99.90;;;;;;5005480;28;20161;-90
2022/06/17 02:28:18;;;;;;;4.87;4.57;;;18.50;99.90;;;;;;5019530;28;20174;-89
2022/06/17 02:30:47;;;;;;;4.80;4.50;;;18.50;99.90;;;;;;5011148;28;20230;-92
2022/06/17 02:33:14;;;;;;;5.27;4.77;;;18.50;99.90;;;;;;5008570;28;20245;-93
2022/06/17 02:35:39;;;;;;;5.30;4.80;;;18.50;99.90;;;;;;4997375;28;20228;-93
2022/06/17 02:38:06;;;;;;;5.00;4.60;;;18.50;99.90;;;;;;4995257;28;20653;-90
2022/06/17 02:40:35;;;;;;;5.50;5.00;;;18.40;99.90;;;;;;4996246;28;20212;-94
2022/06/17 02:43:05;;;;;;;5.10;4.70;;;18.40;99.90;;;;;;4996553;28;20177;-94
2022/06/17 02:45:35;;;;;;;5.53;5.13;;;18.40;99.90;;;;;;4996519;28;20177;-94
2022/06/17 02:48:04;;;;;;;5.40;5.00;;;18.40;99.90;;;;;;4996547;28;20173;-93
2022/06/17 02:50:31;;;;;;;5.40;5.00;;;18.40;99.90;;;;;;4996762;28;20182;-93
2022/06/17 02:52:58;;;;;;;5.63;5.13;;;18.40;99.90;;;;;;4997634;28;20681;-94
2022/06/17 02:55:33;;;;;;;5.50;5.10;;;18.40;99.90;;;;;;5019272;28;20177;-91
2022/06/17 02:58:24;;;;;;;5.33;4.90;;;18.40;99.90;;;;;;5019461;28;20217;-93
2022/06/17 03:00:51;;;;;;;6.67;5.40;;;18.50;99.90;;;;;;4992384;28;20335;-93
2022/06/17 03:03:19;;;;;;;7.47;5.40;;;18.50;99.90;;;;;;4995209;28;20541;-94
2022/06/17 03:05:46;;;;;;;5.70;5.20;;;18.50;99.90;;;;;;4996256;28;20696;-93
2022/06/17 03:08:22;;;;;;;5.70;5.20;;;18.60;99.90;;;;;;4996167;28;20173;-95
2022/06/17 03:10:50;;;;;;;6.77;6.07;;;18.60;99.90;;;;;;4994745;28;20170;-93
2022/06/17 03:13:36;;;;;;;6.07;5.43;;;18.50;99.90;;;;;;4995899;28;20177;-95
2022/06/17 03:16:05;;;;;;;5.90;5.50;;;18.40;99.90;;;;;;4995818;28;20205;-94
2022/06/17 03:18:31;;;;;;;7.43;5.90;;;18.40;99.90;;;;;;4995950;28;20607;-94
2022/06/17 03:20:58;;;;;;;7.73;5.60;;;18.40;99.90;;;;;;4995970;28;20249;-95
2022/06/17 03:23:30;;;;;;;5.30;4.90;;;18.50;99.90;;;;;;4995650;28;20645;-94
2022/06/17 03:26:10;;;;;;;6.60;5.60;;;18.40;99.90;;;;;;4995782;28;20177;-96
2022/06/17 03:28:42;;;;;;;7.27;5.10;;;18.30;99.90;;;;;;4995709;28;20170;-94
2022/06/17 03:31:24;;;;;;;5.33;4.90;;;18.30;99.90;;;;;;4994131;28;20763;-93
2022/06/17 03:33:56;;;;;;;5.13;4.83;;;18.30;99.90;;;;;;4993713;28;20182;-94
2022/06/17 03:36:32;;;;;;;5.30;4.90;;;18.30;99.90;;;;;;4995184;28;20314;-93
2022/06/17 03:39:00;;;;;;;7.80;5.00;;;18.30;99.90;;;;;;4995247;28;20261;-90
2022/06/17 03:41:48;;;;;;;5.43;5.03;;;18.40;99.90;;;;;;4993983;28;20665;-91
2022/06/17 03:44:20;;;;;;;4.90;4.50;;;18.40;99.90;;;;;;4975348;28;20193;-93
2022/06/17 03:46:52;;;;;;;5.03;4.73;;;18.50;99.90;;;;;;4994760;28;20265;-93
2022/06/17 03:49:26;;;;;;;6.43;4.80;;;18.50;99.90;;;;;;4995260;28;20197;-93
2022/06/17 03:51:57;;;;;;;5.20;4.80;;;18.50;99.90;;;;;;4995443;28;20278;-90
2022/06/17 03:54:23;;;;;;;5.63;5.13;;;18.70;99.90;;;;;;5008432;28;20174;-92
2022/06/17 03:56:51;;;;;;;5.17;4.70;;;18.70;99.90;;;;;;5018214;28;20162;-91
2022/06/17 03:59:25;;;;;;;4.83;4.53;;;18.70;99.90;;;;;;5018512;28;20200;-92
2022/06/17 04:02:08;;;;;;;5.20;4.90;;;18.70;99.90;;;;;;5018829;28;20280;-93
2022/06/17 04:04:39;;;;;;;5.80;5.30;;;18.80;99.90;;;;;;4996511;28;20162;-93
2022/06/17 04:07:06;;;;;;;5.93;5.00;;;18.80;99.90;;;;;;4997124;28;20189;-94
2022/06/17 04:09:37;;;;;;;6.47;5.60;;;18.80;99.90;;;;;;4996170;28;20181;-94
2022/06/17 04:12:19;;;;;;;5.47;4.97;;;18.90;99.90;;;;;;4995724;28;20161;-92
2022/06/17 04:14:54;;;;;;;6.20;5.63;;;18.90;99.90;;;;;;5004230;28;20165;-90
2022/06/17 04:17:25;;;;;;;5.93;5.33;;;18.90;99.90;;;;;;5012391;28;20180;-93
2022/06/17 04:20:02;;;;;;;5.93;5.00;;;18.90;99.90;;;;;;4997871;28;20241;-93
2022/06/17 04:22:33;;;;;;;5.63;5.23;;;19.00;99.90;;;;;;4994657;28;20257;-94
2022/06/17 04:25:03;;;;;;;5.07;4.67;;;19.20;99.90;;;;;;4994801;28;20181;-90
2022/06/17 04:27:56;;;;;;;6.13;5.50;;;19.30;99.90;;;;;;4995315;28;20177;-94
2022/06/17 04:30:22;;;;;;;5.10;4.80;;;19.30;99.90;;;;;;4995137;28;20577;-94
2022/06/17 04:32:54;;;;;;;6.40;5.43;;;19.40;99.90;;;;;;4995802;28;20649;-95
2022/06/17 04:35:20;;;;;;;5.80;5.30;;;19.50;99.90;;;;;;4996102;28;20166;-93
2022/06/17 04:37:46;;;;;;;6.10;5.60;;;19.40;99.90;;;;;;4999020;28;20170;-93
2022/06/17 04:40:31;;;;;;;5.30;4.90;;;19.40;99.90;;;;;;4999273;28;20205;-93
2022/06/17 04:42:58;;;;;;;5.47;5.10;;;19.40;99.90;;;;;;5001025;28;20264;-95
2022/06/17 04:45:27;;;;;;;5.00;4.60;;;19.50;99.90;;;;;;4999807;28;20177;-95
2022/06/17 04:47:54;;;;;;;5.37;5.07;;;19.50;99.90;;;;;;4999436;28;20170;-96
2022/06/17 04:50:23;;;;;;;4.90;4.57;;;19.60;99.90;;;;;;5001703;28;20189;-89
2022/06/17 04:52:51;;;;;;;5.27;4.97;;;19.70;99.90;;;;;;4999284;28;20173;-91
2022/06/17 04:55:28;;;;;;;5.30;4.90;;;19.80;99.90;;;;;;4999215;28;20170;-93
2022/06/17 04:57:54;;;;;;;5.40;4.90;;;19.80;99.90;;;;;;4997308;28;20177;-86
2022/06/17 05:00:24;;;;;;;6.00;5.20;;;19.90;99.90;;;;;;5018500;28;20204;-89
2022/06/17 05:02:50;;;;;;;4.80;4.50;;;19.90;99.90;;;;;;5007302;28;20182;-95
2022/06/17 05:05:31;;;;;;;6.00;5.60;;;19.90;99.90;;;;;;4998212;28;20182;-92
2022/06/17 05:07:57;;;;;;;5.90;5.40;;;19.90;99.90;;;;;;4998678;28;20269;-94
2022/06/17 05:10:37;;;;;;;6.03;5.43;;;19.90;99.90;;;;;;4997433;28;20200;-95
2022/06/17 05:13:18;;;;;;;6.17;5.57;;;19.80;99.90;;;;;;4998559;28;20166;-95
2022/06/17 05:15:44;;;;;;;5.60;5.13;;;19.80;99.90;;;;;;4998406;28;20173;-94
2022/06/17 05:18:10;;;;;;;5.80;5.40;;;19.80;99.90;;;;;;4998452;28;20181;-95
2022/06/17 05:20:36;;;;;;;7.30;5.40;;;19.80;99.90;;;;;;4997208;28;20245;-95
2022/06/17 05:23:04;;;;;;;6.30;4.93;;;19.90;99.90;;;;;;4999515;28;20182;-96
2022/06/17 05:25:37;;;;;;;6.03;5.60;;;19.80;99.90;;;;;;5013693;28;20209;-93
2022/06/17 05:28:04;;;;;;;5.97;5.47;;;19.80;99.90;;;;;;4997451;28;20638;-94
2022/06/17 05:30:36;;;;;;;5.90;5.50;;;19.80;99.90;;;;;;5000598;28;20286;-93
2022/06/17 05:33:02;;;;;;;6.20;5.60;;;19.90;99.90;;;;;;4994130;28;20692;-93
2022/06/17 05:35:27;;;;;;;7.27;5.20;;;19.90;99.90;;;;;;4978257;28;20163;-92
2022/06/17 05:37:53;;;;;;;7.40;5.60;;;19.80;99.90;;;;;;4996005;28;20159;-91
2022/06/17 05:40:20;;;;;;;5.47;4.97;;;19.70;99.90;;;;;;4985054;28;20233;-91
2022/06/17 05:42:49;;;;;;;6.20;5.70;;;19.70;99.90;;;;;;4986724;28;20688;-92
2022/06/17 05:45:18;;;;;;;5.80;5.37;;;19.60;99.90;;;;;;4995402;28;20155;-92
2022/06/17 05:47:44;;;;;;;7.40;5.53;;;19.60;99.90;;;;;;5016133;28;20155;-91
2022/06/17 05:50:12;;;;;;;6.67;5.40;;;19.70;99.90;;;;;;4985711;28;20209;-95
2022/06/17 05:53:08;;;;;;;6.60;6.00;;;19.80;99.90;;;;;;4945911;28;20198;-89
2022/06/17 05:55:36;;;;;;;7.97;5.47;;;19.90;99.90;;;;;;4971055;28;20194;-94
2022/06/17 05:58:02;;;;;;;6.17;5.57;;;20.10;99.90;;;;;;4987599;28;20189;-90
2022/06/17 06:00:30;;;;;;;5.93;5.43;;;20.40;99.90;;;;;;4966680;28;20542;-89
2022/06/17 06:03:01;;;;;;;5.93;5.30;;;20.60;99.90;;;;;;4972820;28;20179;-85
2022/06/17 06:05:29;;;;;;;5.87;5.47;;;20.70;99.90;;;;;;4978629;28;20281;-88
2022/06/17 06:07:55;;;;;;;5.47;5.07;;;20.70;99.90;;;;;;4974354;28;20190;-93
2022/06/17 06:10:23;;;;;;;5.87;5.27;;;20.80;99.90;;;;;;4987628;28;20170;-91
2022/06/17 06:12:58;;;;;;;5.67;5.20;;;20.80;99.90;;;;;;4995435;28;20182;-89
2022/06/17 06:15:30;;;;;;;5.93;5.10;;;20.80;99.90;;;;;;4963416;28;20166;-92
2022/06/17 06:17:56;;;;;;;6.27;5.27;;;20.80;99.90;;;;;;4979529;28;20249;-89
2022/06/17 06:20:22;;;;;;;4.93;4.67;;;20.70;99.90;;;;;;4979654;28;20542;-95
2022/06/17 06:22:48;;;;;;;5.70;5.30;;;20.70;99.90;;;;;;4977854;28;20175;-96
2022/06/17 06:25:17;;;;;;;5.40;5.00;;;20.60;99.90;;;;;;4980913;28;20649;-88
2022/06/17 06:27:43;;;;;;;5.70;5.30;;;20.50;99.90;;;;;;4972052;28;20174;-92
2022/06/17 06:30:21;;;;;;;6.00;5.50;;;20.70;99.90;;;;;;5002707;28;20249;-95
2022/06/17 06:32:52;;;;;;;5.63;5.23;;;20.80;99.90;;;;;;5014391;28;20186;-91
2022/06/17 06:35:20;;;;;;;5.17;4.87;;;21.00;99.90;;;;;;5012830;28;20162;-96
2022/06/17 06:37:46;;;;;;;5.47;4.97;;;21.00;99.90;;;;;;4981714;28;20174;-93
2022/06/17 06:40:12;;;;;;;5.07;4.77;;;21.20;99.90;;;;;;4998758;28;20260;-91
2022/06/17 06:42:38;;;;;;;5.77;5.30;;;21.20;99.90;;;;;;4997802;28;20167;-95
2022/06/17 06:45:05;;;;;;;5.93;5.00;;;21.20;99.90;;;;;;4999480;28;20177;-96
2022/06/17 06:47:31;;;;;;;5.63;5.27;;;21.20;99.90;;;;;;4982148;28;20277;-93
2022/06/17 06:49:57;;;;;;;5.67;5.17;;;21.20;99.90;;;;;;4982275;28;20226;-94
2022/06/17 06:52:22;;;;;;;5.33;4.93;;;21.20;99.90;;;;;;4996972;28;20182;-95
2022/06/17 06:54:50;;;;;;;5.97;5.23;;;21.20;99.90;;;;;;4996572;28;20182;-92
2022/06/17 06:57:16;;;;;;;6.27;5.63;;;21.30;99.90;;;;;;4982489;28;20178;-93
2022/06/17 06:59:42;;;;;;;5.70;5.27;;;21.20;99.90;;;;;;5010741;28;20182;-85
2022/06/17 07:02:09;;;;;;;5.60;5.00;;;21.30;99.90;;;;;;5009598;28;20182;-89
2022/06/17 07:04:35;;;;;;;7.40;5.87;;;21.20;99.90;;;;;;4979868;28;20519;-90
2022/06/17 07:07:00;;;;;;;5.83;5.30;;;21.20;99.90;;;;;;4997676;28;20657;-92
2022/06/17 07:09:26;;;;;;;5.57;5.10;;;21.20;99.90;;;;;;4995915;28;20182;-93
2022/06/17 07:11:53;;;;;;;6.03;5.47;;;21.40;99.90;;;;;;4980621;28;20570;-92
2022/06/17 07:14:19;;;;;;;5.70;5.20;;;21.50;99.90;;;;;;4981892;28;20264;-93
2022/06/17 07:16:44;;;;;;;5.60;5.20;;;21.60;99.90;;;;;;4998835;28;20332;-93
2022/06/17 07:19:17;;;;;;;5.33;4.83;;;21.60;99.90;;;;;;5019313;28;20170;-86
2022/06/17 07:21:43;;;;;;;4.97;4.67;;;21.70;99.90;;;;;;5014685;28;20209;-93
2022/06/17 07:24:08;;;;;;;5.63;5.13;;;21.70;99.90;;;;;;4981101;28;20177;-94
2022/06/17 07:26:34;;;;;;;4.87;4.57;;;21.70;99.90;;;;;;4978495;28;20544;-94
2022/06/17 07:29:00;;;;;;;5.60;5.20;;;21.90;99.90;;;;;;4997529;28;20639;-94
2022/06/17 07:31:28;;;;;;;5.57;5.07;;;21.90;99.90;;;;;;4996879;28;20182;-94
2022/06/17 07:33:57;;;;;;;7.20;5.00;;;22.00;99.90;;;;;;4988221;28;20284;-87
2022/06/17 07:41:57;;;;;;;5.80;4.90;;;22.30;99.90;;;;;;4996777;28;20789;-94
2022/06/17 07:44:23;;;;;;;5.23;4.83;;;22.40;99.90;;;;;;4979729;28;20245;-92
2022/06/17 07:46:49;;;;;;;5.13;4.73;;;22.50;99.90;;;;;;4995761;28;20196;-91
2022/06/17 07:49:16;;;;;;;5.53;4.40;;;22.50;99.90;;;;;;4999389;28;20186;-91
2022/06/17 07:51:42;;;;;;;5.20;4.80;;;22.60;99.90;;;;;;5013526;28;20170;-85
2022/06/17 07:54:08;;;;;;;5.03;4.63;;;22.80;99.90;;;;;;4979731;28;20189;-92
2022/06/17 07:56:33;;;;;;;5.07;4.67;;;22.80;99.90;;;;;;4995273;28;20174;-94
2022/06/17 07:58:59;;;;;;;4.93;4.53;;;22.90;99.90;;;;;;4977652;28;20224;-92
2022/06/17 08:01:25;;;;;;;4.73;4.27;;;22.90;99.90;;;;;;4997208;28;20205;-93
2022/06/17 08:03:51;;;;;;;4.83;4.40;;;22.90;99.90;;;;;;4994659;28;20174;-93
2022/06/17 08:06:18;;;;;;;4.90;4.60;;;22.90;99.90;;;;;;4995019;28;20177;-89
2022/06/17 08:08:45;;;;;;;5.43;4.80;;;23.00;99.90;;;;;;4995000;28;20597;-93
2022/06/17 08:11:12;;;;;;;6.67;4.80;;;23.10;99.90;;;;;;4994919;28;20182;-95
2022/06/17 08:13:38;;;;;;;6.27;4.70;;;23.10;99.90;;;;;;4978266;28;20174;-95
2022/06/17 08:16:06;;;;;;;5.40;5.07;;;23.00;99.90;;;;;;4995352;28;20201;-93
2022/06/17 08:18:32;;;;;;;5.07;4.77;;;23.20;99.90;;;;;;4976951;28;20170;-88
2022/06/17 08:20:58;;;;;;;5.30;4.90;;;23.30;99.90;;;;;;4994992;28;20205;-92
2022/06/17 08:23:25;;;;;;;5.17;4.70;;;23.10;99.90;;;;;;4994571;28;20580;-89
2022/06/17 08:25:51;;;;;;;5.10;4.70;;;23.00;99.90;;;;;;4994201;28;20198;-93
2022/06/17 08:28:18;;;;;;;5.63;5.33;;;22.80;99.90;;;;;;4977223;28;20212;-90
2022/06/17 08:30:49;;;;;;;4.97;4.67;;;22.80;99.90;;;;;;4962111;28;20218;-91
2022/06/17 08:33:16;;;;;;;4.70;4.30;;;22.90;99.90;;;;;;4957590;28;20277;-91
2022/06/17 08:35:45;;;;;;;4.27;4.03;;;22.90;99.90;;;;;;4975079;28;20189;-93
2022/06/17 08:38:24;;;;;;;4.32;4.13;;;23.00;99.20;;;;;;4975442;28;20174;-93
2022/06/17 08:40:52;;;;;;;5.20;4.10;;;23.30;98.80;;;;;;4981698;28;20202;-88
2022/06/17 08:43:47;;;;;;;4.33;4.10;;;23.50;97.60;;;;;;4984542;28;20175;-87
2022/06/17 08:46:21;;;;;;;4.73;4.27;;;23.90;97.40;;;;;;4984502;28;20179;-94
2022/06/17 08:49:24;;;;;;;4.83;4.00;;;24.40;97.10;;;;;;4975749;28;20174;-94
2022/06/17 08:52:18;;;;;;;5.15;4.15;;;24.70;96.00;;;;;;4975883;28;20174;-93
2022/06/17 08:55:13;;;;;;;4.25;4.00;;;24.90;95.30;;;;;;4966405;28;20222;-93
2022/06/17 08:58:00;;;;;;;4.60;4.05;;;25.00;94.60;;;;;;4971596;28;20191;-85
2022/06/17 09:01:08;;;;;;;4.05;3.75;;;25.20;94.00;;;;;;4992227;28;20206;-92
2022/06/17 09:04:05;;;;;;;4.38;4.07;;;25.20;93.50;;;;;;4975730;28;20225;-91
2022/06/17 09:07:06;;;;;;;4.82;4.00;;;25.20;93.40;;;;;;4962484;28;20265;-92
2022/06/17 09:10:00;;;;;;;3.92;3.70;;;25.20;93.60;;;;;;4959723;28;20188;-90
2022/06/17 09:12:52;;;;;;;5.03;4.55;;;25.20;94.10;;;;;;4965095;28;20698;-92
2022/06/17 09:15:27;;;;;;;4.47;4.07;;;24.90;94.60;;;;;;4958983;28;20174;-89
2022/06/17 09:18:06;;;;;;;6.25;4.10;;;24.80;95.00;;;;;;4976158;28;20209;-92
2022/06/17 09:20:39;;;;;;;5.00;4.57;;;24.60;95.40;;;;;;4997650;28;20178;-86
2022/06/17 09:23:08;;;;;;;4.85;4.55;;;24.50;95.70;;;;;;4995179;28;20178;-93
2022/06/17 09:25:42;;;;;;;5.40;4.72;;;24.50;95.40;;;;;;4979607;28;20177;-89
2022/06/17 09:28:26;;;;;;;4.93;4.63;;;24.50;95.00;;;;;;4980032;28;20174;-93
2022/06/17 09:31:13;;;;;;;4.78;4.47;;;24.50;95.60;;;;;;4974138;28;20230;-93
2022/06/17 09:34:02;;;;;;;4.60;4.30;;;24.50;95.80;;;;;;4985787;28;20162;-86
2022/06/17 09:36:44;;;;;;;4.43;4.03;;;24.60;95.30;;;;;;4996599;28;20183;-86
2022/06/17 09:39:29;;;;;;;4.43;4.13;;;24.70;95.50;;;;;;4999838;28;20170;-89
2022/06/17 09:42:08;;;;;;;4.97;4.57;;;24.90;94.90;;;;;;4978062;28;20553;-93
2022/06/17 09:45:07;;;;;;;4.45;4.05;;;25.00;93.80;;;;;;4978204;28;20159;-87
2022/06/17 09:47:45;;;;;;;4.20;3.80;;;25.00;93.70;;;;;;4978957;28;20278;-89
2022/06/17 09:50:18;;;;;;;5.13;4.15;;;25.10;94.00;;;;;;4980578;28;20163;-93
2022/06/17 09:52:54;;;;;;;4.60;4.20;;;25.30;93.60;;;;;;4979891;28;20169;-92
2022/06/17 09:55:42;;;;;;;4.32;4.03;;;25.40;93.00;;;;;;4978236;28;20226;-93
2022/06/17 09:58:46;;;;;;;4.18;3.90;;;25.40;93.00;;;;;;4977538;28;20187;-94
2022/06/17 10:01:13;;;;;;;4.40;4.00;;;25.20;91.10;;;;;;4937024;29;20215;-91
2022/06/17 10:03:39;;;;;;;6.25;4.35;;;24.90;91.10;;;;;;4937755;29;20191;-91
2022/06/17 10:06:26;;;;;;;4.63;4.25;;;24.70;90.80;;;;;;4937317;29;20208;-91
2022/06/17 10:08:52;;;;;;;5.32;3.95;;;24.50;91.00;;;;;;4920734;29;20270;-89
2022/06/17 10:11:50;;;;;;;4.28;3.92;;;24.60;91.50;;;;;;4938011;29;20266;-93
2022/06/17 10:14:24;;;;;;;4.18;3.88;;;24.90;91.10;;;;;;4921742;29;20176;-92
2022/06/17 10:20:02;;;;;;;4.90;3.92;;;25.10;92.00;;;;;;4939597;29;20187;-93
2022/06/17 10:22:57;;;;;;;4.03;3.72;;;25.30;90.40;;;;;;4920812;29;20192;-93
2022/06/17 10:26:03;;;;;;;3.55;3.35;;;25.40;90.00;;;;;;4937055;29;20224;-94
2022/06/17 10:28:34;;;;;;;3.97;3.78;;;25.50;89.20;;;;;;4920718;29;20183;-91
2022/06/17 10:31:11;;;;;;;3.90;3.60;;;25.40;89.50;;;;;;4936402;29;20649;-93
2022/06/17 10:33:39;;;;;;;6.32;3.67;;;25.50;90.20;;;;;;4936447;29;20202;-87
2022/06/17 10:36:06;;;;;;;3.83;3.53;;;25.50;89.00;;;;;;4973340;28;20273;-92
2022/06/17 10:38:41;;;;;;;3.63;3.30;;;25.60;87.70;;;;;;4998995;28;20151;-88
2022/06/17 10:41:07;;;;;;;4.07;3.78;;;25.70;86.90;;;;;;4989258;28;20302;-94
2022/06/17 10:43:39;;;;;;;5.35;3.40;;;25.60;87.20;;;;;;4960244;28;20206;-88
2022/06/17 10:46:10;;;;;;;4.63;3.58;;;25.60;88.10;;;;;;4975541;28;20175;-89
2022/06/17 10:48:57;;;;;;;3.72;3.40;;;25.50;88.80;;;;;;4976838;28;20167;-88
2022/06/17 10:51:24;;;;;;;3.95;3.67;;;25.40;87.10;;;;;;4978322;28;20174;-88
2022/06/17 10:53:55;;;;;;;2.97;2.88;;;25.50;85.20;;;;;;4959910;28;20175;-89
2022/06/17 10:56:36;;;;;;;3.35;3.03;;;25.60;83.80;;;;;;4987912;28;20175;-84
2022/06/17 10:59:08;;;;;;;3.10;2.80;;;25.70;83.90;;;;;;4994104;28;20159;-85
2022/06/17 11:01:53;;;;;;;2.88;2.67;;;25.80;82.20;;;;;;4984749;28;20233;-88
2022/06/17 11:04:32;;;;;;;3.22;2.95;;;25.90;79.80;;;;;;4977255;28;20241;-89
2022/06/17 11:07:03;;;;;;;3.08;2.88;;;25.80;80.30;;;;;;4975947;28;20171;-86
2022/06/17 11:09:37;;;;;;;2.97;2.78;;;25.80;79.30;;;;;;4995274;28;20167;-90
2022/06/17 11:12:16;;;;;;;3.13;2.78;;;25.80;78.50;;;;;;4998837;28;20158;-91
2022/06/17 11:14:45;;;;;;;3.55;3.15;;;25.90;77.50;;;;;;4991593;28;20198;-93
2022/06/17 11:17:19;;;;;;;6.63;3.17;;;26.00;78.90;;;;;;4985643;28;20210;-90
2022/06/17 11:19:51;;;;;;;3.03;2.85;;;25.90;78.50;;;;;;4993215;28;20158;-87
2022/06/17 11:22:21;;;;;;;2.95;2.75;;;25.90;78.40;;;;;;4999407;28;20193;-86
2022/06/17 11:24:55;;;;;;;3.53;3.10;;;25.90;77.90;;;;;;4996709;28;20187;-93
2022/06/17 11:27:41;;;;;;;2.83;2.70;;;26.00;77.80;;;;;;4978506;28;20571;-91
2022/06/17 11:30:23;;;;;;;3.10;2.85;;;26.00;77.70;;;;;;4986083;28;20220;-94
2022/06/17 11:32:50;;;;;;;3.72;2.90;;;26.00;77.40;;;;;;4996154;28;20249;-90
2022/06/17 11:35:24;;;;;;;3.17;2.97;;;26.00;76.80;;;;;;4995924;28;20228;-90
2022/06/17 11:37:50;;;;;;;3.35;3.05;;;26.00;77.60;;;;;;4995195;28;20174;-88
2022/06/17 11:40:23;;;;;;;3.33;3.13;;;26.00;78.00;;;;;;4995341;28;20197;-93
2022/06/17 11:42:54;;;;;;;3.30;3.03;;;26.00;77.00;;;;;;4995397;28;20236;-87
2022/06/17 11:45:44;;;;;;;2.70;2.60;;;26.00;77.50;;;;;;4994543;28;20606;-91
2022/06/17 11:48:15;;;;;;;2.90;2.70;;;26.10;77.90;;;;;;4997500;28;20190;-89
2022/06/17 11:51:07;;;;;;;3.08;2.83;;;26.20;76.90;;;;;;4997416;28;20224;-88
2022/06/17 11:53:44;;;;;;;2.90;2.70;;;26.30;76.10;;;;;;4995685;28;20166;-89
2022/06/17 11:56:11;;;;;;;2.70;2.60;;;26.20;75.90;;;;;;4980653;28;20229;-93
2022/06/17 11:58:57;;;;;;;2.75;2.55;;;26.20;75.50;;;;;;4995653;28;20166;-89
2022/06/17 12:01:23;;;;;;;3.03;2.90;;;26.20;75.60;;;;;;4994692;28;20215;-89
2022/06/17 12:03:49;;;;;;;3.08;2.97;;;26.30;74.90;;;;;;4994964;28;20257;-88
2022/06/17 12:06:24;;;;;;;2.80;2.60;;;26.40;74.40;;;;;;4994922;28;20193;-91
2022/06/17 12:09:11;;;;;;;2.92;2.58;;;26.60;73.40;;;;;;4995199;28;20166;-93
2022/06/17 12:11:56;;;;;;;2.90;2.70;;;26.50;73.50;;;;;;4995893;28;20216;-90
2022/06/17 12:14:45;;;;;;;2.88;2.75;;;26.40;72.90;;;;;;4995159;28;20178;-92
2022/06/17 12:17:15;;;;;;;2.65;2.45;;;26.40;73.40;;;;;;4986713;28;20163;-91
2022/06/17 12:19:41;;;;;;;3.05;2.70;;;26.30;73.20;;;;;;4992155;28;20170;-91
2022/06/17 12:22:34;;;;;;;2.80;2.40;;;26.30;73.40;;;;;;4968911;28;20547;-91
2022/06/17 12:25:31;;;;;;;2.35;2.25;;;26.40;74.00;;;;;;4975474;28;20175;-90
2022/06/17 12:28:32;;;;;;;2.38;2.28;;;26.40;73.40;;;;;;4976001;28;20254;-85
2022/06/17 12:31:19;;;;;;;2.47;2.38;;;26.50;73.30;;;;;;4974984;28;20214;-93
2022/06/17 12:34:19;;;;;;;2.50;2.40;;;26.50;73.00;;;;;;4986563;28;20229;-90
2022/06/17 12:37:02;;;;;;;2.47;2.38;;;26.50;72.40;;;;;;4994500;28;20216;-93
2022/06/17 12:39:39;;;;;;;3.88;2.25;;;26.60;70.00;;;;;;4994819;28;20626;-91
2022/06/17 12:42:17;;;;;;;2.70;2.50;;;26.50;69.90;;;;;;4994278;28;20236;-90
2022/06/17 12:45:06;;;;;;;2.80;2.60;;;26.60;71.40;;;;;;4976735;28;20173;-91
2022/06/17 12:48:12;;;;;;;2.88;2.67;;;26.60;70.80;;;;;;4993806;28;20519;-91
2022/06/17 12:54:22;;;;;;;2.70;2.50;;;26.60;69.40;;;;;;4937387;28;20197;-86
2022/06/17 12:57:11;;;;;;;4.50;2.45;;;26.60;69.50;;;;;;4996116;28;20166;-88
2022/06/17 12:59:59;;;;;;;2.38;2.30;;;26.70;69.10;;;;;;4982947;28;20181;-89
2022/06/17 13:02:53;;;;;;;2.72;2.50;;;26.90;68.50;;;;;;5008743;28;20188;-87
2022/06/17 13:05:51;;;;;;;2.50;2.30;;;26.90;67.20;;;;;;5010858;28;20182;-93
2022/06/17 13:08:54;;;;;;;2.28;2.17;;;26.90;66.30;;;;;;5001659;28;20193;-86
2022/06/17 13:11:42;;;;;;;2.92;2.50;;;26.90;66.10;;;;;;5007191;28;20200;-86
2022/06/17 13:14:49;;;;;;;2.20;2.10;;;26.90;66.80;;;;;;5006924;28;20170;-90
2022/06/17 13:17:27;;;;;;;2.80;2.33;;;26.90;64.80;;;;;;4918262;29;20210;-91
2022/06/17 13:20:31;;;;;;;3.20;3.10;;;27.00;66.30;;;;;;4902330;29;20532;-92
2022/06/17 13:23:17;;;;;;;4.15;3.85;;;26.90;74.40;;;;;;4983597;28;20669;-89
2022/06/17 13:26:02;;;;;;;4.30;3.92;;;27.00;80.00;;;;;;4982907;28;20193;-91
2022/06/17 13:28:30;;;;;;;4.78;3.85;;;27.10;82.80;;;;;;5004293;28;20188;-90
2022/06/17 13:31:02;;;;;;;4.30;3.90;;;27.00;83.30;;;;;;4997190;28;20225;-86
2022/06/17 13:33:34;;;;;;;4.35;3.72;;;26.80;83.20;;;;;;4997077;28;20163;-90
2022/06/17 13:36:20;;;;;;;3.60;3.30;;;26.80;81.80;;;;;;4979306;28;20264;-89
2022/06/17 13:39:05;;;;;;;3.05;2.95;;;26.70;82.80;;;;;;4997335;28;20162;-90